.
WxDataArchive / Data Records for 2015-12-29
2015-12-28 December 2015 2015-12-30

Data Records for Tuesday, 29 December 2015

Time	Temp	Chill	HIndex	Humid	Dewpt	 Wind 	HiWind	WindDir	Rain 	Barom
-----	----	-----	------	-----	-----	------	------	-------	-----	-----
00:00	36.0	36.0	36.0	96	35.0	0	0	---	0.00	29.591 
00:05	36.0	36.0	36.0	96	35.0	0	1	112	0.00	29.591 
00:10	36.2	36.2	36.2	96	35.2	0	2	112	0.00	29.591 
00:15	36.3	36.3	36.3	96	35.3	0	0	---	0.00	29.599 
00:20	36.6	36.6	36.6	96	35.6	0	0	---	0.00	29.599 
00:25	36.6	36.6	36.6	96	35.6	0	0	---	0.00	29.599 
00:30	36.6	36.6	36.6	96	35.6	0	0	---	0.00	29.606 
00:35	36.6	36.6	36.6	96	35.6	0	0	---	0.00	29.606 
00:40	36.6	36.6	36.6	96	35.6	0	0	---	0.00	29.606 
00:45	36.6	36.6	36.6	96	35.6	0	0	---	0.00	29.601 
00:50	36.6	36.6	36.6	96	35.6	0	0	---	0.00	29.601 
00:55	36.8	36.8	36.8	96	35.8	0	0	---	0.00	29.601 
01:00	36.9	36.9	36.9	96	35.9	0	1	112	0.00	29.593 
01:05	36.9	36.9	36.9	96	35.9	0	0	---	0.00	29.593 
01:10	36.9	36.9	36.9	96	35.9	0	0	---	0.00	29.593 
01:15	36.6	36.6	36.6	96	35.6	0	0	---	0.00	29.595 
01:20	36.3	36.3	36.3	96	35.3	0	0	---	0.00	29.595 
01:25	36.2	36.2	36.2	96	35.2	0	0	---	0.00	29.595 
01:30	36.0	36.0	36.0	96	35.0	0	0	---	0.00	29.601 
01:35	35.9	35.9	35.9	96	34.9	0	0	---	0.00	29.601 
01:40	35.9	35.9	35.9	96	34.9	0	0	---	0.00	29.601 
01:45	36.0	36.0	36.0	96	35.0	0	0	---	0.00	29.595 
01:50	36.6	36.6	36.6	96	35.6	0	1	112	0.00	29.595 
01:55	37.2	37.2	37.2	96	36.2	0	0	---	0.00	29.595 
02:00	37.5	37.5	37.5	96	36.5	0	0	---	0.00	29.601 
02:05	37.8	37.8	37.8	97	37.0	0	0	---	0.00	29.601 
02:10	38.3	38.3	38.3	97	37.5	0	0	---	0.00	29.601 
02:15	38.8	38.8	38.8	97	38.0	0	0	---	0.00	29.604 
02:20	39.2	39.2	39.2	97	38.4	0	0	---	0.00	29.604 
02:25	39.6	39.6	39.6	97	38.8	0	0	---	0.00	29.604 
02:30	40.1	40.1	40.1	97	39.3	0	2	112	0.00	29.613 
02:35	40.5	40.5	40.5	97	39.7	0	2	112	0.00	29.613 
02:40	40.9	40.9	40.9	97	40.1	0	1	112	0.00	29.613 
02:45	41.2	41.2	41.2	97	40.4	0	2	112	0.00	29.618 
02:50	41.6	41.6	41.6	97	40.8	0	2	112	0.00	29.618 
02:55	41.9	41.9	41.9	97	41.1	0	3	112	0.00	29.618 
03:00	42.1	42.1	42.1	97	41.3	0	2	112	0.00	29.626 
03:05	42.2	42.2	42.2	97	41.4	0	3	112	0.00	29.626 
03:10	42.2	42.2	42.2	97	41.4	0	3	112	0.00	29.626 
03:15	42.2	42.2	42.2	97	41.4	0	3	248	0.00	29.633 
03:20	42.3	42.3	42.3	97	41.5	0	2	248	0.00	29.633 
03:25	42.3	42.3	42.3	97	41.5	0	3	248	0.00	29.633 
03:30	42.3	42.3	42.3	97	41.5	0	2	248	0.00	29.639 
03:35	42.3	42.3	42.3	96	41.2	0	2	112	0.00	29.639 
03:40	42.3	42.3	42.3	96	41.2	0	2	90	0.00	29.639 
03:45	42.3	42.3	42.3	96	41.2	1	5	90	0.00	29.644 
03:50	42.3	42.3	42.3	96	41.2	0	2	270	0.00	29.644 
03:55	42.3	42.3	42.3	96	41.2	0	3	270	0.00	29.644 
04:00	42.3	42.3	42.3	96	41.2	1	4	248	0.00	29.649 
04:05	42.3	42.3	42.3	96	41.2	1	6	292	0.00	29.649 
04:10	42.3	42.3	42.3	96	41.2	1	4	248	0.00	29.649 
04:15	42.3	42.3	42.3	96	41.2	1	5	270	0.00	29.649 
04:20	42.3	42.3	42.3	96	41.2	1	6	248	0.00	29.649 
04:25	42.5	42.5	42.5	96	41.4	1	6	248	0.00	29.649 
04:30	42.5	42.5	42.5	96	41.4	1	3	270	0.00	29.648 
04:35	42.5	42.5	42.5	96	41.4	1	6	248	0.00	29.648 
04:40	42.5	42.5	42.5	95	41.2	1	4	248	0.00	29.648 
04:45	42.6	42.6	42.6	95	41.3	1	3	248	0.00	29.659 
04:50	42.6	42.6	42.6	95	41.3	1	5	248	0.00	29.659 
04:55	42.6	42.6	42.6	94	41.0	1	6	248	0.00	29.659 
05:00	42.8	42.8	42.8	94	41.2	1	9	248	0.00	29.663 
05:05	42.9	42.9	42.9	93	41.0	1	4	248	0.00	29.663 
05:10	42.9	42.9	42.9	93	41.0	2	5	248	0.00	29.663 
05:15	42.9	42.9	42.9	92	40.7	1	4	248	0.00	29.668 
05:20	42.9	42.9	42.9	92	40.7	2	9	248	0.00	29.668 
05:25	42.9	42.9	42.9	91	40.5	2	5	248	0.00	29.668 
05:30	42.3	42.3	42.3	91	39.9	2	5	248	0.00	29.685 
05:35	41.9	41.9	41.9	91	39.5	2	4	270	0.00	29.685 
05:40	41.1	41.1	41.1	91	38.7	3	6	248	0.00	29.685 
05:45	40.3	37.7	40.3	91	37.9	4	12	248	0.00	29.700 
05:50	39.9	39.9	39.9	91	37.5	2	4	270	0.00	29.700 
05:55	39.6	39.6	39.6	91	37.2	3	9	248	0.00	29.700 
06:00	39.5	39.5	39.5	91	37.1	2	10	270	0.00	29.717 
06:05	39.3	39.3	39.3	90	36.6	2	7	248	0.00	29.717 
06:10	39.2	39.2	39.2	90	36.5	2	6	248	0.00	29.717 
06:15	39.2	39.2	39.2	90	36.5	2	5	270	0.00	29.731 
06:20	39.2	39.2	39.2	90	36.5	3	7	248	0.00	29.731 
06:25	39.2	39.2	39.2	90	36.5	2	6	248	0.00	29.731 
06:30	39.2	39.2	39.2	89	36.2	2	7	248	0.00	29.738 
06:35	39.3	39.3	39.3	89	36.3	2	10	270	0.00	29.738 
06:40	39.2	39.2	39.2	88	35.9	2	10	248	0.00	29.738 
06:45	39.3	39.3	39.3	88	36.0	0	3	248	0.00	29.744 
06:50	39.2	39.2	39.2	88	35.9	1	5	248	0.00	29.744 
06:55	39.2	39.2	39.2	88	35.9	2	6	248	0.00	29.744 
07:00	39.1	39.1	39.1	87	35.6	2	6	248	0.00	29.754 
07:05	39.1	39.1	39.1	87	35.6	1	7	248	0.00	29.754 
07:10	38.9	38.9	38.9	87	35.4	2	6	248	0.00	29.754 
07:15	38.6	38.6	38.6	85	34.5	3	11	248	0.00	29.763 
07:20	38.5	38.5	38.5	83	33.8	2	6	248	0.00	29.763 
07:25	38.5	38.5	38.5	82	33.5	3	7	248	0.00	29.763 
07:30	38.3	38.3	38.3	80	32.7	3	11	248	0.00	29.774 
07:35	38.2	38.2	38.2	79	32.3	2	9	248	0.00	29.774 
07:40	38.0	38.0	38.0	79	32.1	2	7	248	0.00	29.774 
07:45	38.0	38.0	38.0	79	32.1	1	5	248	0.00	29.780 
07:50	37.9	34.9	37.9	78	31.7	4	9	248	0.00	29.780 
07:55	37.8	37.8	37.8	78	31.6	2	5	248	0.00	29.780 
08:00	37.8	37.8	37.8	78	31.6	2	6	248	0.00	29.789 
08:05	37.6	37.6	37.6	77	31.1	3	7	248	0.00	29.789 
08:10	37.6	34.5	37.6	77	31.1	4	11	248	0.00	29.789 
08:15	37.5	37.5	37.5	76	30.6	3	10	248	0.00	29.794 
08:20	37.5	37.5	37.5	77	31.0	2	7	248	0.00	29.794 
08:25	37.3	37.3	37.3	77	30.8	2	5	248	0.00	29.794 
08:30	37.2	37.2	37.2	78	31.0	1	11	248	0.00	29.809 
08:35	37.2	37.2	37.2	78	31.0	1	4	248	0.00	29.809 
08:40	36.9	36.9	36.9	79	31.0	3	10	248	0.00	29.809 
08:45	36.8	36.8	36.8	79	30.9	3	9	270	0.00	29.820 
08:50	36.6	36.6	36.6	80	31.0	2	4	270	0.00	29.820 
08:55	36.6	36.6	36.6	80	31.0	3	12	248	0.00	29.820 
09:00	36.5	36.5	36.5	80	30.9	2	6	248	0.00	29.828 
09:05	36.5	36.5	36.5	80	30.9	2	6	270	0.00	29.828 
09:10	36.6	36.6	36.6	80	31.0	1	4	248	0.00	29.828 
09:15	36.6	36.6	36.6	79	30.7	2	7	248	0.00	29.838 
09:20	36.8	36.8	36.8	77	30.3	3	10	248	0.00	29.838 
09:25	36.8	33.6	36.8	75	29.6	4	11	248	0.00	29.838 
09:30	36.9	36.9	36.9	74	29.4	2	6	248	0.00	29.849 
09:35	37.0	37.0	37.0	74	29.5	2	9	248	0.00	29.849 
09:40	37.0	37.0	37.0	73	29.2	3	10	248	0.00	29.849 
09:45	37.0	37.0	37.0	74	29.5	2	7	248	0.00	29.862 
09:50	37.0	37.0	37.0	74	29.5	2	9	248	0.00	29.862 
09:55	37.0	37.0	37.0	74	29.5	1	6	248	0.00	29.862 
10:00	36.9	36.9	36.9	74	29.4	2	5	248	0.00	29.874 
10:05	36.9	36.9	36.9	75	29.7	2	12	248	0.00	29.874 
10:10	36.9	36.9	36.9	76	30.1	2	5	292	0.00	29.874 
10:15	36.9	36.9	36.9	77	30.4	2	6	248	0.00	29.887 
10:20	36.9	36.9	36.9	77	30.4	2	5	270	0.00	29.887 
10:25	36.8	36.8	36.8	77	30.3	2	9	248	0.00	29.887 
10:30	36.8	36.8	36.8	76	30.0	2	6	248	0.00	29.898 
10:35	36.8	36.8	36.8	76	30.0	3	7	248	0.00	29.898 
10:40	36.8	36.8	36.8	76	30.0	2	5	292	0.00	29.898 
10:45	36.8	36.8	36.8	77	30.3	2	7	248	0.00	29.905 
10:50	36.8	36.8	36.8	78	30.6	2	6	248	0.00	29.905 
10:55	36.8	36.8	36.8	78	30.6	2	7	248	0.00	29.905 
11:00	36.8	36.8	36.8	78	30.6	3	7	248	0.00	29.918 
11:05	36.8	36.8	36.8	77	30.3	3	7	270	0.00	29.918 
11:10	36.8	36.8	36.8	77	30.3	2	11	248	0.00	29.918 
11:15	36.8	36.8	36.8	76	30.0	2	7	248	0.00	29.924 
11:20	36.8	36.8	36.8	75	29.6	3	10	248	0.00	29.924 
11:25	36.9	36.9	36.9	76	30.1	2	6	248	0.00	29.924 
11:30	36.9	36.9	36.9	76	30.1	2	6	292	0.00	29.933 
11:35	37.0	37.0	37.0	76	30.2	2	6	248	0.00	29.933 
11:40	37.0	37.0	37.0	76	30.2	3	9	248	0.00	29.933 
11:45	36.9	36.9	36.9	76	30.1	3	7	248	0.00	29.936 
11:50	36.8	36.8	36.8	77	30.3	2	6	248	0.00	29.936 
11:55	36.3	36.3	36.3	80	30.7	2	4	248	0.00	29.936 
12:00	36.2	36.2	36.2	82	31.2	2	6	248	0.00	29.939 
12:05	36.3	36.3	36.3	84	31.9	1	4	248	0.00	29.939 
12:10	36.5	36.5	36.5	84	32.1	1	5	248	0.00	29.939 
12:15	36.0	36.0	36.0	83	31.3	3	9	248	0.00	29.944 
12:20	36.2	36.2	36.2	83	31.5	2	6	248	0.00	29.944 
12:25	36.3	36.3	36.3	83	31.6	2	5	248	0.00	29.944 
12:30	36.5	36.5	36.5	81	31.2	3	10	248	0.00	29.945 
12:35	36.5	36.5	36.5	78	30.3	3	11	248	0.00	29.945 
12:40	36.5	36.5	36.5	75	29.3	2	6	248	0.00	29.945 
12:45	36.6	36.6	36.6	74	29.1	2	5	248	0.00	29.949 
12:50	36.6	36.6	36.6	74	29.1	1	4	248	0.00	29.949 
12:55	36.5	36.5	36.5	75	29.3	3	6	270	0.00	29.949 
13:00	36.3	36.3	36.3	75	29.1	2	11	248	0.00	29.948 
13:05	36.5	36.5	36.5	75	29.3	2	6	270	0.00	29.948 
13:10	36.3	36.3	36.3	74	28.8	2	5	248	0.00	29.948 
13:15	36.3	36.3	36.3	74	28.8	2	6	248	0.00	29.951 
13:20	36.3	36.3	36.3	74	28.8	1	5	248	0.00	29.951 
13:25	36.2	36.2	36.2	74	28.7	2	5	248	0.00	29.951 
13:30	36.2	36.2	36.2	74	28.7	3	7	248	0.00	29.962 
13:35	36.0	36.0	36.0	74	28.5	3	7	248	0.00	29.962 
13:40	35.9	32.6	35.9	73	28.1	4	9	248	0.00	29.962 
13:45	35.9	35.9	35.9	73	28.1	2	6	248	0.00	29.966 
13:50	35.9	35.9	35.9	74	28.4	2	9	270	0.00	29.966 
13:55	35.9	35.9	35.9	74	28.4	3	5	248	0.00	29.966 
14:00	36.0	36.0	36.0	75	28.9	1	5	248	0.00	29.970 
14:05	36.0	36.0	36.0	74	28.5	2	5	248	0.00	29.970 
14:10	36.0	36.0	36.0	74	28.5	2	6	248	0.00	29.970 
14:15	36.0	36.0	36.0	75	28.9	2	4	248	0.00	29.972 
14:20	36.0	36.0	36.0	74	28.5	2	4	248	0.00	29.972 
14:25	35.9	35.9	35.9	74	28.4	3	6	270	0.00	29.972 
14:30	35.8	35.8	35.8	73	28.0	3	10	248	0.00	29.980 
14:35	35.8	35.8	35.8	73	28.0	3	9	248	0.00	29.980 
14:40	35.9	35.9	35.9	73	28.1	2	4	248	0.00	29.980 
14:45	35.9	35.9	35.9	72	27.8	3	10	248	0.00	29.993 
14:50	36.0	36.0	36.0	73	28.2	2	6	248	0.00	29.993 
14:55	36.0	36.0	36.0	73	28.2	1	4	248	0.00	29.993 
15:00	36.0	36.0	36.0	73	28.2	2	5	248	0.00	29.995 
15:05	35.9	35.9	35.9	73	28.1	2	4	248	0.00	29.995 
15:10	35.9	35.9	35.9	73	28.1	2	6	248	0.00	29.995 
15:15	35.8	35.8	35.8	73	28.0	2	7	270	0.00	30.005 
15:20	35.8	35.8	35.8	74	28.3	1	7	248	0.00	30.005 
15:25	35.8	35.8	35.8	73	28.0	2	5	248	0.00	30.005 
15:30	35.6	35.6	35.6	72	27.5	2	6	248	0.00	30.015 
15:35	35.6	35.6	35.6	72	27.5	2	5	248	0.00	30.015 
15:40	35.6	35.6	35.6	72	27.5	1	4	292	0.00	30.015 
15:45	35.6	35.6	35.6	73	27.8	1	4	248	0.00	30.027 
15:50	35.5	35.5	35.5	73	27.7	1	3	270	0.00	30.027 
15:55	35.3	35.3	35.3	73	27.5	1	4	270	0.00	30.027 
16:00	35.2	35.2	35.2	74	27.8	1	4	270	0.00	30.043 
16:05	35.0	35.0	35.0	74	27.6	1	4	270	0.00	30.043 
16:10	35.0	35.0	35.0	75	27.9	1	3	248	0.00	30.043 
16:15	35.0	35.0	35.0	75	27.9	1	6	248	0.00	30.047 
16:20	34.9	34.9	34.9	76	28.1	1	3	248	0.00	30.047 
16:25	34.9	34.9	34.9	76	28.1	1	4	248	0.00	30.047 
16:30	34.7	34.7	34.7	76	27.9	2	7	270	0.00	30.053 
16:35	34.6	34.6	34.6	77	28.1	2	6	248	0.00	30.053 
16:40	34.3	34.3	34.3	77	27.9	2	5	248	0.00	30.053 
16:45	34.1	34.1	34.1	77	27.7	2	4	270	0.00	30.056 
16:50	34.1	34.1	34.1	77	27.7	2	5	270	0.00	30.056 
16:55	34.1	34.1	34.1	77	27.7	2	4	270	0.00	30.056 
17:00	34.1	34.1	34.1	78	28.0	2	5	270	0.00	30.075 
17:05	34.0	34.0	34.0	78	27.9	1	3	292	0.00	30.075 
17:10	33.8	33.8	33.8	77	27.4	2	5	292	0.00	30.075 
17:15	33.8	33.8	33.8	77	27.4	1	3	248	0.00	30.080 
17:20	33.8	33.8	33.8	77	27.4	0	3	248	0.00	30.080 
17:25	33.8	33.8	33.8	77	27.4	1	5	248	0.00	30.080 
17:30	33.8	33.8	33.8	77	27.4	1	4	248	0.00	30.087 
17:35	33.8	33.8	33.8	77	27.4	1	4	270	0.00	30.087 
17:40	33.8	33.8	33.8	77	27.4	2	6	248	0.00	30.087 
17:45	33.7	33.7	33.7	77	27.3	1	4	248	0.00	30.094 
17:50	33.7	33.7	33.7	77	27.3	1	3	248	0.00	30.094 
17:55	33.5	33.5	33.5	77	27.1	1	4	248	0.00	30.094 
18:00	33.5	33.5	33.5	77	27.1	1	4	248	0.00	30.108 
18:05	33.5	33.5	33.5	77	27.1	1	4	248	0.00	30.108 
18:10	33.5	33.5	33.5	77	27.1	1	3	248	0.00	30.108 
18:15	33.4	33.4	33.4	77	27.0	1	4	248	0.00	30.109 
18:20	33.4	33.4	33.4	77	27.0	1	3	248	0.00	30.109 
18:25	33.4	33.4	33.4	77	27.0	1	4	248	0.00	30.109 
18:30	33.2	33.2	33.2	78	27.1	1	2	248	0.00	30.111 
18:35	33.2	33.2	33.2	78	27.1	1	3	248	0.00	30.111 
18:40	33.1	33.1	33.1	79	27.3	1	4	248	0.00	30.111 
18:45	33.1	33.1	33.1	79	27.3	1	4	248	0.00	30.128 
18:50	32.9	32.9	32.9	78	26.8	1	5	248	0.00	30.128 
18:55	32.9	32.9	32.9	79	27.1	1	3	248	0.00	30.128 
19:00	32.9	32.9	32.9	79	27.1	1	3	248	0.00	30.147 
19:05	32.8	32.8	32.8	80	27.3	0	1	248	0.00	30.147 
19:10	32.8	32.8	32.8	80	27.3	1	3	248	0.00	30.147 
19:15	32.8	32.8	32.8	80	27.3	1	3	248	0.00	30.145 
19:20	32.8	32.8	32.8	80	27.3	0	4	248	0.00	30.145 
19:25	32.7	32.7	32.7	80	27.2	2	5	248	0.00	30.145 
19:30	32.7	32.7	32.7	79	26.9	0	3	248	0.00	30.151 
19:35	32.7	32.7	32.7	79	26.9	0	2	248	0.00	30.151 
19:40	32.7	32.7	32.7	79	26.9	1	3	248	0.00	30.151 
19:45	32.7	32.7	32.7	80	27.2	0	2	248	0.00	30.161 
19:50	32.7	32.7	32.7	80	27.2	0	2	248	0.00	30.161 
19:55	32.7	32.7	32.7	81	27.5	1	4	248	0.00	30.161 
20:00	32.7	32.7	32.7	81	27.5	0	3	248	0.00	30.159 
20:05	32.5	32.5	32.5	81	27.3	1	3	248	0.00	30.159 
20:10	32.4	32.4	32.4	81	27.2	1	3	248	0.00	30.159 
20:15	32.4	32.4	32.4	81	27.2	0	2	248	0.00	30.146 
20:20	32.2	32.2	32.2	81	27.0	1	3	248	0.00	30.146 
20:25	32.2	32.2	32.2	81	27.0	0	2	248	0.00	30.146 
20:30	32.2	32.2	32.2	81	27.0	1	3	248	0.00	30.156 
20:35	32.2	32.2	32.2	81	27.0	1	4	248	0.00	30.156 
20:40	32.2	32.2	32.2	81	27.0	2	4	248	0.00	30.156 
20:45	32.2	32.2	32.2	81	27.0	1	3	248	0.00	30.162 
20:50	32.2	32.2	32.2	82	27.3	1	4	248	0.00	30.162 
20:55	32.2	32.2	32.2	82	27.3	1	3	248	0.00	30.162 
21:00	32.2	32.2	32.2	82	27.3	0	1	248	0.00	30.161 
21:05	32.2	32.2	32.2	82	27.3	1	3	248	0.00	30.161 
21:10	32.1	32.1	32.1	81	26.9	0	3	248	0.00	30.161 
21:15	32.1	32.1	32.1	81	26.9	0	2	248	0.00	30.158 
21:20	32.1	32.1	32.1	81	26.9	1	3	248	0.00	30.158 
21:25	32.1	32.1	32.1	81	26.9	1	2	248	0.00	30.158 
21:30	32.1	32.1	32.1	81	26.9	0	2	248	0.00	30.151 
21:35	32.1	32.1	32.1	81	26.9	0	2	248	0.00	30.151 
21:40	32.1	32.1	32.1	81	26.9	0	2	248	0.00	30.151 
21:45	32.1	32.1	32.1	81	26.9	0	2	248	0.00	30.179 
21:50	32.1	32.1	32.1	81	26.9	0	1	248	0.00	30.179 
21:55	32.1	32.1	32.1	82	27.2	0	2	248	0.00	30.179 
22:00	32.1	32.1	32.1	82	27.2	0	3	248	0.00	30.179 
22:05	32.1	32.1	32.1	81	26.9	0	2	248	0.00	30.179 
22:10	32.1	32.1	32.1	81	26.9	0	2	248	0.00	30.179 
22:15	32.1	32.1	32.1	81	26.9	0	2	248	0.00	30.186 
22:20	32.1	32.1	32.1	81	26.9	0	2	248	0.00	30.186 
22:25	32.1	32.1	32.1	81	26.9	0	2	248	0.00	30.186 
22:30	32.1	32.1	32.1	81	26.9	1	3	248	0.00	30.178 
22:35	31.9	31.9	31.9	81	26.7	0	1	248	0.00	30.178 
22:40	31.9	31.9	31.9	81	26.7	0	2	248	0.00	30.178 
22:45	31.9	31.9	31.9	82	27.0	0	3	248	0.00	30.176 
22:50	31.9	31.9	31.9	82	27.0	0	3	248	0.00	30.176 
22:55	31.9	31.9	31.9	82	27.0	0	2	248	0.00	30.176 
23:00	31.9	31.9	31.9	82	27.0	0	2	248	0.00	30.185 
23:05	31.9	31.9	31.9	82	27.0	0	3	248	0.00	30.185 
23:10	31.9	31.9	31.9	82	27.0	0	2	248	0.00	30.185 
23:15	31.9	31.9	31.9	82	27.0	0	1	248	0.00	30.177 
23:20	31.9	31.9	31.9	82	27.0	0	2	248	0.00	30.177 
23:25	31.8	31.8	31.8	81	26.6	0	3	248	0.00	30.177 
23:30	31.8	31.8	31.8	81	26.6	0	1	248	0.00	30.161 
23:35	31.6	31.6	31.6	81	26.5	0	1	248	0.00	30.161 
23:40	31.6	31.6	31.6	81	26.5	0	1	248	0.00	30.161 
23:45	31.6	31.6	31.6	81	26.5	0	2	248	0.00	30.177 
23:50	31.6	31.6	31.6	81	26.5	0	3	248	0.00	30.177 
23:55	31.6	31.6	31.6	81	26.5	0	2	248	0.00	30.177 

CoCoRaHS
IN-AL-39
A2 Web Hosting
Creative Commons License
GoDaddy
search engine by freefind advanced

loaded 2018-11-14 03:40:55 • last modified 2010-11-18 10:43:29
Privacy PolicyDisclaimer
• wx.awcolley.com is powered by PmWiki v.2002016 •
• all content (unless otherwise noted) © 2018 A W Colley